SKLT/LET METAR and TAF weather

Enter ICAO airport designator
Station Type Date Time Source
SKLT METAR 2019/05/23 19:00 UTC NOAA

SKLT 231900Z 08003KT 9999 SCT020 34/24 A2982


Station Type Date Time Source
SKLT Decoded METAR 2019/05/23 19:00 UTC NOAA

Leticia / Vasquez Cobo, Colombia (SKLT) 04-10S 069-57W 84M
May 23, 2019 - 03:00 PM EDT / 2019.05.23 1900 UTC
Wind: from the E (080 degrees) at 3 MPH (3 KT):0
Visibility: greater than 7 mile(s):0
Sky conditions: partly cloudy
Temperature: 93 F (34 C)
Heat index: 104.5 F (40.3 C):1
Dew Point: 75 F (24 C)
Relative Humidity: 56%
Pressure (altimeter): 29.82 in. Hg (1009 hPa)
ob: SKLT 231900Z 08003KT 9999 SCT020 34/24 A2982
cycle: 19

Station Type Date Time Source
SKLT TAF 2019/05/23 18:51 UTC NOAA

TAF SKLT 231630Z 2318/2418 11005KT 9999 SCT017 SCT090
TEMPO 2318/2322 7000 RA SCT015TCU
BECMG 2403/2405 00000KT
TEMPO 2409/2412 4000 BCFG SCT007 TX33/2318Z TN23/2411Z

Example: see airport list